createdAt,value
2022-09-26T00:03:55.446Z,99.99
2022-09-26T00:08:55.531Z,99.99
2022-09-26T00:13:54.750Z,99.99
2022-09-26T00:18:56.848Z,99.99
2022-09-26T00:23:55.962Z,99.75
2022-09-26T00:28:57.126Z,98.02
2022-09-26T00:33:58.355Z,97.71
2022-09-26T00:38:59.674Z,97.25
2022-09-26T00:44:00.790Z,97.56
2022-09-26T00:49:01.887Z,97.46
2022-09-26T00:54:02.979Z,97.66
2022-09-26T00:59:04.197Z,98.43
2022-09-26T01:04:05.479Z,99.34
2022-09-26T01:09:08.623Z,99.99
2022-09-26T01:14:08.759Z,99.99
2022-09-26T01:19:07.860Z,99.99
2022-09-26T01:24:09.079Z,99.99
2022-09-26T01:29:09.374Z,99.99
2022-09-26T01:34:10.594Z,99.99
2022-09-26T01:39:12.838Z,99.99
2022-09-26T01:44:13.037Z,99.99
2022-09-26T01:49:13.197Z,99.99
2022-09-26T01:54:12.309Z,99.99
2022-09-26T01:59:13.536Z,99.99
2022-09-26T02:04:14.628Z,99.99
2022-09-26T02:09:15.741Z,99.99
2022-09-26T02:14:16.975Z,99.99
2022-09-26T02:19:19.084Z,99.99
2022-09-26T02:24:18.496Z,99.99
2022-09-26T02:29:19.821Z,99.99
2022-09-26T02:34:20.959Z,99.99
2022-09-26T02:39:22.064Z,99.99
2022-09-26T02:44:23.254Z,99.99
2022-09-26T02:49:24.549Z,99.99
2022-09-26T02:54:30.111Z,99.99
2022-09-26T02:59:25.323Z,99.99
2022-09-26T03:04:27.460Z,99.99
2022-09-26T03:09:26.581Z,99.99
2022-09-26T03:14:27.849Z,99.99
2022-09-26T03:19:29.937Z,99.99
2022-09-26T03:24:29.076Z,99.99
2022-09-26T03:29:31.169Z,99.79
2022-09-26T03:34:30.496Z,99.18
2022-09-26T03:39:31.583Z,99.39
2022-09-26T03:44:33.684Z,98.57
2022-09-26T03:49:32.761Z,98.36
2022-09-26T03:54:34.006Z,98.27
2022-09-26T03:59:35.263Z,98.06
2022-09-26T04:04:37.369Z,98.32
2022-09-26T04:09:36.641Z,98.63
2022-09-26T04:14:37.936Z,99.49
2022-09-26T04:19:39.076Z,98.36
2022-09-26T04:24:40.261Z,99.69
2022-09-26T04:29:41.386Z,99.99
2022-09-26T04:34:43.510Z,99.74
2022-09-26T04:39:42.620Z,99.18
2022-09-26T04:44:44.708Z,98.47
2022-09-26T04:49:44.814Z,97.14
2022-09-26T04:54:44.230Z,97.65
2022-09-26T04:59:45.323Z,98.61
2022-09-26T05:04:46.417Z,99.58
2022-09-26T05:09:47.703Z,99.99
2022-09-26T05:14:48.958Z,99.48
2022-09-26T05:19:50.199Z,99.58
2022-09-26T05:24:51.346Z,98.66
2022-09-26T05:29:52.594Z,99.38
2022-09-26T05:34:53.765Z,99.99
2022-09-26T05:39:54.937Z,99.99
2022-09-26T05:44:56.126Z,99.99
2022-09-26T05:49:57.220Z,99.18
2022-09-26T05:54:59.601Z,98.31
2022-09-26T05:59:58.845Z,97.96
2022-09-26T06:05:00.020Z,96.89
2022-09-26T06:10:01.111Z,96.38
2022-09-26T06:15:01.387Z,95.36
2022-09-26T06:20:03.467Z,95.10
2022-09-26T06:25:02.697Z,94.49
2022-09-26T06:30:03.886Z,95.31
2022-09-26T06:35:05.130Z,95.36
2022-09-26T06:40:07.248Z,95.47
2022-09-26T06:45:05.323Z,94.20
2022-09-26T06:50:07.441Z,93.59
2022-09-26T06:55:06.516Z,93.73
2022-09-26T07:00:08.622Z,92.36
2022-09-26T07:05:07.703Z,95.67
2022-09-26T07:10:08.832Z,97.09
2022-09-26T07:15:09.922Z,99.54
2022-09-26T07:20:11.999Z,99.99
2022-09-26T07:25:11.089Z,99.99
2022-09-26T07:30:12.186Z,99.00
2022-09-26T07:35:14.273Z,97.93
2022-09-26T07:40:13.413Z,96.87
2022-09-26T07:45:28.096Z,95.91
2022-09-26T07:50:14.596Z,92.97
2022-09-26T07:55:16.694Z,93.70
2022-09-26T08:00:15.915Z,90.37
2022-09-26T08:05:16.998Z,90.77
2022-09-26T08:10:18.081Z,94.42
2022-09-26T08:15:19.174Z,97.00
2022-09-26T08:20:20.339Z,95.89
2022-09-26T08:25:21.434Z,94.20
2022-09-26T08:30:22.517Z,93.02
2022-09-26T08:35:23.799Z,94.20
2022-09-26T08:40:25.045Z,91.79
2022-09-26T08:45:26.211Z,93.63
2022-09-26T08:50:27.388Z,96.03
2022-09-26T08:55:28.543Z,95.84
2022-09-26T09:00:29.751Z,95.59
2022-09-26T09:05:30.851Z,93.41
2022-09-26T09:10:32.936Z,92.91
2022-09-26T09:15:32.135Z,91.90
2022-09-26T09:20:33.306Z,90.99
2022-09-26T09:25:35.414Z,91.29
2022-09-26T09:30:34.667Z,91.29
2022-09-26T09:35:35.853Z,91.09
2022-09-26T09:40:37.071Z,91.29
2022-09-26T09:45:38.297Z,92.71
2022-09-26T09:50:39.385Z,91.14
2022-09-26T09:55:40.589Z,87.30
2022-09-26T10:00:40.765Z,90.91
2022-09-26T10:05:42.054Z,88.02
2022-09-26T10:10:43.209Z,92.29
2022-09-26T10:15:44.505Z,85.76
2022-09-26T10:20:45.684Z,85.17
2022-09-26T10:25:46.873Z,80.93
2022-09-26T10:30:47.126Z,82.86
2022-09-26T10:35:49.305Z,80.39
2022-09-26T10:40:48.707Z,80.32
2022-09-26T10:45:49.953Z,78.91
2022-09-26T10:50:52.116Z,84.05
2022-09-26T10:55:51.313Z,78.67
2022-09-26T11:00:53.440Z,77.25
2022-09-26T11:05:52.519Z,77.55
2022-09-26T11:10:55.736Z,76.73
2022-09-26T11:15:55.275Z,77.30
2022-09-26T11:20:54.425Z,78.67
2022-09-26T11:25:57.942Z,73.39
2022-09-26T11:30:55.516Z,73.69
2022-09-26T11:35:56.674Z,70.89
2022-09-26T11:40:57.058Z,71.57
2022-09-26T11:45:58.249Z,71.67
2022-09-26T11:50:59.385Z,71.84
2022-09-26T11:56:00.525Z,67.77
2022-09-26T12:01:01.800Z,65.75
2022-09-26T12:06:03.932Z,64.97
2022-09-26T12:11:04.034Z,64.64
2022-09-26T12:16:04.300Z,65.89
2022-09-26T12:21:02.489Z,64.31
2022-09-26T12:26:04.605Z,64.12
2022-09-26T12:31:02.730Z,62.59
2022-09-26T12:36:03.897Z,60.51
2022-09-26T12:41:05.091Z,59.43
2022-09-26T12:46:06.385Z,62.83
2022-09-26T12:51:07.554Z,62.90
2022-09-26T12:56:08.759Z,60.13
2022-09-26T13:01:09.939Z,59.77
2022-09-26T13:06:11.136Z,62.07
2022-09-26T13:11:13.343Z,59.30
2022-09-26T13:16:12.613Z,64.41
2022-09-26T13:21:14.819Z,61.94
2022-09-26T13:26:13.901Z,59.01
2022-09-26T13:31:15.058Z,55.91
2022-09-26T13:36:16.236Z,55.88
2022-09-26T13:41:18.341Z,57.35
2022-09-26T13:46:17.561Z,55.66
2022-09-26T13:51:18.731Z,56.80
2022-09-26T13:56:19.946Z,57.53
2022-09-26T14:01:21.117Z,55.79
2022-09-26T14:06:22.313Z,54.60
2022-09-26T14:11:22.591Z,59.08
2022-09-26T14:16:23.771Z,54.63
2022-09-26T14:21:25.964Z,54.10
2022-09-26T14:26:25.121Z,56.01
2022-09-26T14:31:26.344Z,54.23
2022-09-26T14:36:31.403Z,59.99
2022-09-26T14:41:28.588Z,63.24
2022-09-26T14:46:29.929Z,62.54
2022-09-26T14:51:31.143Z,65.62
2022-09-26T14:56:33.238Z,65.45
2022-09-26T15:01:32.438Z,67.97
2022-09-26T15:06:33.638Z,64.73
2022-09-26T15:11:35.098Z,60.65
2022-09-26T15:16:36.326Z,59.94
2022-09-26T15:21:37.527Z,62.23
2022-09-26T15:26:38.698Z,58.18
2022-09-26T15:31:39.982Z,58.71
2022-09-26T15:36:41.130Z,57.73
2022-09-26T15:41:42.265Z,71.50
2022-09-26T15:46:43.523Z,71.57
2022-09-26T15:51:44.745Z,75.79
2022-09-26T15:56:44.861Z,74.98
2022-09-26T16:01:45.057Z,75.58
2022-09-26T16:06:46.309Z,75.52
2022-09-26T16:11:47.431Z,72.41
2022-09-26T16:16:49.536Z,73.97
2022-09-26T16:21:48.657Z,75.29
2022-09-26T16:26:50.759Z,76.87
2022-09-26T16:31:49.901Z,76.98
2022-09-26T16:36:51.011Z,77.22
2022-09-26T16:42:07.504Z,79.00
2022-09-26T16:46:52.342Z,78.60
2022-09-26T16:51:53.545Z,78.33
2022-09-26T16:56:54.672Z,80.26
2022-09-26T17:01:56.904Z,81.48
2022-09-26T17:06:57.003Z,81.48
2022-09-26T17:11:56.193Z,82.64
2022-09-26T17:16:57.327Z,83.93
2022-09-26T17:21:58.513Z,84.64
2022-09-26T17:26:59.625Z,81.90
2022-09-26T17:32:00.808Z,82.14
2022-09-26T17:37:03.043Z,82.95
2022-09-26T17:42:02.220Z,83.76
2022-09-26T17:47:03.480Z,81.37
2022-09-26T17:52:05.662Z,81.02
2022-09-26T17:57:04.777Z,81.33
2022-09-26T18:02:05.978Z,82.93
2022-09-26T18:07:07.124Z,82.82
2022-09-26T18:12:08.313Z,82.99
2022-09-26T18:17:09.629Z,85.37
2022-09-26T18:22:10.953Z,82.26
2022-09-26T18:27:12.382Z,83.37
2022-09-26T18:32:13.555Z,84.29
2022-09-26T18:37:14.787Z,83.98
2022-09-26T18:42:16.060Z,85.37
2022-09-26T18:47:17.299Z,77.98
2022-09-26T18:52:18.551Z,78.35
2022-09-26T18:57:20.087Z,78.49
2022-09-26T19:02:19.487Z,79.10
2022-09-26T19:07:21.577Z,79.27
2022-09-26T19:12:21.081Z,78.76
2022-09-26T19:17:22.360Z,78.31
2022-09-26T19:22:23.770Z,77.70
2022-09-26T19:27:23.129Z,79.74
2022-09-26T19:32:23.258Z,79.84
2022-09-26T19:37:25.525Z,79.43
2022-09-26T19:42:24.954Z,78.21
2022-09-26T19:47:26.064Z,78.62
2022-09-26T19:52:28.193Z,78.11
2022-09-26T19:57:31.290Z,77.70
2022-09-26T20:02:28.505Z,77.70
2022-09-26T20:07:29.612Z,75.67
2022-09-26T20:12:30.775Z,75.98
2022-09-26T20:17:32.057Z,75.46
2022-09-26T20:22:33.165Z,76.31
2022-09-26T20:27:34.417Z,77.94
2022-09-26T20:32:35.501Z,77.33
2022-09-26T20:37:36.687Z,78.11
2022-09-26T20:42:37.856Z,76.18
2022-09-26T20:47:39.960Z,76.92
2022-09-26T20:52:39.221Z,76.01
2022-09-26T20:57:40.358Z,76.52
2022-09-26T21:02:41.591Z,76.01
2022-09-26T21:07:42.743Z,77.03
2022-09-26T21:12:44.845Z,76.04
2022-09-26T21:17:44.046Z,76.72
2022-09-26T21:22:45.215Z,74.93
2022-09-26T21:27:46.670Z,74.62
2022-09-26T21:32:47.778Z,75.33
2022-09-26T21:37:48.871Z,75.43
2022-09-26T21:42:51.966Z,75.95
2022-09-26T21:47:51.096Z,73.57
2022-09-26T21:52:52.218Z,72.72
2022-09-26T21:57:53.325Z,73.94
2022-09-26T22:02:54.531Z,73.23
2022-09-26T22:07:55.652Z,73.23
2022-09-26T22:12:56.804Z,75.91
2022-09-26T22:17:57.925Z,76.48
2022-09-26T22:22:59.086Z,77.94
2022-09-26T22:28:00.225Z,77.84
2022-09-26T22:33:01.369Z,78.05
2022-09-26T22:38:02.505Z,77.74
2022-09-26T22:43:04.635Z,77.37
2022-09-26T22:48:03.840Z,77.40
2022-09-26T22:53:06.047Z,76.90
2022-09-26T22:58:05.134Z,77.10
2022-09-26T23:03:06.309Z,77.64
2022-09-26T23:08:07.481Z,77.24
2022-09-26T23:13:08.671Z,77.95
2022-09-26T23:18:10.761Z,77.03
2022-09-26T23:23:09.913Z,77.75
2022-09-26T23:28:11.012Z,78.32
2022-09-26T23:33:12.165Z,81.01
2022-09-26T23:38:13.600Z,80.13
2022-09-26T23:43:14.702Z,81.09
2022-09-26T23:48:15.856Z,84.39
2022-09-26T23:53:16.940Z,85.00
2022-09-26T23:58:19.190Z,85.71
